Time;durP1;ratioP1;P1;durP2;ratioP2;P2;SDS_P1;SDS_P2;PMS_P1;PMS_P2;Temp;Humidity;BMP_temperature;BMP_pressure;BME280_temperature;BME280_humidity;BME280_pressure;Samples;Min_cycle;Max_cycle;Signal;HPM_P1;HPM_P2
2021/07/26 00:00:42;;;;;;;4.60;2.58;;;24.00;58.30;;;;;;4879329;29;20029;-61
2021/07/26 00:03:08;;;;;;;4.15;2.40;;;24.00;58.30;;;;;;4878893;29;20061;-61
2021/07/26 00:05:33;;;;;;;4.10;2.30;;;23.90;58.30;;;;;;4878983;29;20044;-61
2021/07/26 00:07:59;;;;;;;4.80;2.33;;;23.90;58.40;;;;;;4878948;29;20032;-62
2021/07/26 00:10:24;;;;;;;4.45;2.40;;;23.90;58.40;;;;;;4878796;29;20108;-61
2021/07/26 00:12:50;;;;;;;3.95;2.03;;;23.90;58.40;;;;;;4878776;29;20065;-61
2021/07/26 00:15:15;;;;;;;4.35;2.08;;;23.90;58.40;;;;;;4878834;29;20048;-61
2021/07/26 00:17:41;;;;;;;4.55;2.30;;;23.90;58.40;;;;;;4878822;29;20032;-61
2021/07/26 00:20:10;;;;;;;5.20;2.38;;;23.90;58.50;;;;;;4879152;29;20485;-61
2021/07/26 00:22:35;;;;;;;4.68;2.25;;;23.90;58.50;;;;;;4879066;29;20108;-61
2021/07/26 00:25:01;;;;;;;5.13;2.53;;;23.90;58.50;;;;;;4878829;29;20029;-61
2021/07/26 00:27:26;;;;;;;4.10;2.20;;;23.90;58.50;;;;;;4878909;29;20035;-61
2021/07/26 00:29:52;;;;;;;4.53;2.50;;;23.90;58.50;;;;;;4878999;29;20025;-61
2021/07/26 00:32:17;;;;;;;4.53;2.13;;;23.90;58.50;;;;;;4879050;29;20021;-61
2021/07/26 00:34:43;;;;;;;3.53;2.00;;;23.90;58.50;;;;;;4878568;29;20509;-61
2021/07/26 00:37:08;;;;;;;3.75;2.20;;;23.90;58.60;;;;;;4880280;29;20029;-61
2021/07/26 00:39:35;;;;;;;4.68;2.53;;;23.90;58.60;;;;;;4882210;29;20042;-61
2021/07/26 00:42:02;;;;;;;4.53;2.45;;;23.90;58.60;;;;;;4882265;29;20081;-61
2021/07/26 00:44:30;;;;;;;4.82;2.55;;;23.90;58.60;;;;;;4882196;29;20051;-61
2021/07/26 00:46:56;;;;;;;4.70;2.45;;;23.90;58.70;;;;;;4882070;29;20474;-61
2021/07/26 00:49:25;;;;;;;3.85;2.20;;;23.80;58.60;;;;;;4882248;29;20080;-61
2021/07/26 00:51:56;;;;;;;4.40;2.38;;;23.80;58.70;;;;;;4882387;29;20170;-61
2021/07/26 00:54:30;;;;;;;5.80;2.47;;;23.80;58.70;;;;;;4881962;29;20044;-61
2021/07/26 00:56:59;;;;;;;4.03;2.13;;;23.80;58.70;;;;;;4882221;29;20104;-61
2021/07/26 00:59:26;;;;;;;4.97;2.55;;;23.80;58.70;;;;;;4881986;29;20029;-61
2021/07/26 01:01:52;;;;;;;4.60;2.50;;;23.80;58.80;;;;;;4882131;29;20025;-61
2021/07/26 01:04:17;;;;;;;4.97;2.38;;;23.80;58.70;;;;;;4881684;29;20569;-61
2021/07/26 01:06:44;;;;;;;5.57;2.75;;;23.80;58.70;;;;;;4881871;29;20041;-61
2021/07/26 01:09:09;;;;;;;6.03;2.22;;;23.80;58.80;;;;;;4881742;29;20422;-61
2021/07/26 01:11:35;;;;;;;4.78;2.72;;;23.80;58.80;;;;;;4881862;29;20081;-61
2021/07/26 01:14:00;;;;;;;3.83;2.17;;;23.70;58.90;;;;;;4881590;29;20025;-61
2021/07/26 01:16:26;;;;;;;4.80;2.30;;;23.80;58.80;;;;;;4881752;29;20045;-61
2021/07/26 01:18:52;;;;;;;3.88;2.05;;;23.70;58.80;;;;;;4881948;29;20054;-61
2021/07/26 01:21:19;;;;;;;4.20;2.33;;;23.80;58.90;;;;;;4881647;29;20412;-61
2021/07/26 01:23:47;;;;;;;4.00;2.28;;;23.70;58.80;;;;;;4881421;29;20025;-61
2021/07/26 01:26:15;;;;;;;4.32;2.50;;;23.70;58.90;;;;;;4880301;29;20484;-61
2021/07/26 01:28:43;;;;;;;5.70;2.40;;;23.70;58.90;;;;;;4881962;29;20025;-61
2021/07/26 01:31:10;;;;;;;4.47;2.10;;;23.70;58.90;;;;;;4881574;29;20036;-61
2021/07/26 01:33:36;;;;;;;4.35;2.50;;;23.70;58.90;;;;;;4881261;29;20036;-61
2021/07/26 01:36:02;;;;;;;4.30;2.35;;;23.70;59.00;;;;;;4881343;29;20036;-62
2021/07/26 01:38:28;;;;;;;4.05;2.13;;;23.70;59.00;;;;;;4881143;29;20029;-61
2021/07/26 01:40:55;;;;;;;4.22;2.30;;;23.70;59.00;;;;;;4881080;29;20060;-61
2021/07/26 01:43:24;;;;;;;4.50;2.40;;;23.70;59.00;;;;;;4881000;29;20021;-61
2021/07/26 01:46:03;;;;;;;3.72;2.10;;;23.70;59.00;;;;;;4881002;29;20025;-61
2021/07/26 01:48:41;;;;;;;3.92;2.30;;;23.70;59.00;;;;;;4880441;29;20390;-61
2021/07/26 01:51:14;;;;;;;4.60;2.30;;;23.70;59.00;;;;;;4879671;29;20036;-60
2021/07/26 01:53:42;;;;;;;3.38;2.00;;;23.70;59.00;;;;;;4881066;29;20036;-60
2021/07/26 01:56:08;;;;;;;4.43;2.55;;;23.60;59.00;;;;;;4880907;29;20041;-60
2021/07/26 01:58:34;;;;;;;5.15;2.30;;;23.60;59.00;;;;;;4880754;29;20021;-60
2021/07/26 02:00:59;;;;;;;6.97;2.40;;;23.60;59.00;;;;;;4880819;29;20039;-61
2021/07/26 02:03:25;;;;;;;4.82;2.30;;;23.60;59.10;;;;;;4880516;29;20056;-62
2021/07/26 02:05:50;;;;;;;4.45;2.30;;;23.70;59.10;;;;;;4880979;29;20029;-61
2021/07/26 02:08:16;;;;;;;3.88;2.10;;;23.60;59.10;;;;;;4880937;29;20434;-61
2021/07/26 02:10:41;;;;;;;6.43;2.45;;;23.60;59.10;;;;;;4880876;29;20107;-61
2021/07/26 02:13:07;;;;;;;4.15;2.20;;;23.60;59.10;;;;;;4880482;29;20043;-62
2021/07/26 02:15:32;;;;;;;4.07;2.20;;;23.60;59.10;;;;;;4880751;29;20119;-61
2021/07/26 02:17:58;;;;;;;4.20;2.15;;;23.50;59.20;;;;;;4880844;29;20393;-65
2021/07/26 02:20:23;;;;;;;4.20;2.40;;;23.60;59.30;;;;;;4880527;29;20033;-61
2021/07/26 02:22:49;;;;;;;4.22;2.30;;;23.60;59.20;;;;;;4880631;29;20025;-61
2021/07/26 02:25:16;;;;;;;4.43;2.20;;;23.60;59.20;;;;;;4880415;29;20036;-61
2021/07/26 02:27:44;;;;;;;3.97;2.08;;;23.60;59.20;;;;;;4880293;29;20469;-60
2021/07/26 02:30:09;;;;;;;3.63;2.00;;;23.60;59.20;;;;;;4880459;29;20041;-61
2021/07/26 02:32:35;;;;;;;4.30;2.47;;;23.50;59.20;;;;;;4879116;29;20427;-61
2021/07/26 02:35:00;;;;;;;4.47;2.40;;;23.50;59.20;;;;;;4880279;29;20051;-61
2021/07/26 02:37:26;;;;;;;4.55;2.45;;;23.60;59.30;;;;;;4880349;29;20025;-60
2021/07/26 02:39:51;;;;;;;4.43;2.47;;;23.50;59.30;;;;;;4880532;29;20418;-61
2021/07/26 02:42:17;;;;;;;3.65;1.83;;;23.50;59.30;;;;;;4880243;29;20096;-61
2021/07/26 02:44:42;;;;;;;5.15;2.30;;;23.50;59.30;;;;;;4880246;29;20040;-61
2021/07/26 02:47:08;;;;;;;5.50;2.30;;;23.50;59.30;;;;;;4880191;29;20048;-61
2021/07/26 02:49:33;;;;;;;4.68;2.47;;;23.50;59.30;;;;;;4880260;29;20108;-61
2021/07/26 02:51:59;;;;;;;4.45;2.47;;;23.50;59.30;;;;;;4889406;29;20062;-61
2021/07/26 02:54:24;;;;;;;4.40;2.30;;;23.50;59.30;;;;;;4885623;29;20044;-61
2021/07/26 02:56:50;;;;;;;5.93;2.92;;;23.50;59.30;;;;;;4880074;29;20029;-61
2021/07/26 02:59:15;;;;;;;3.72;2.00;;;23.50;59.40;;;;;;4879945;29;20029;-61
2021/07/26 03:01:41;;;;;;;4.88;2.25;;;23.50;59.50;;;;;;4879230;29;20032;-61
2021/07/26 03:04:06;;;;;;;4.78;2.35;;;23.50;59.50;;;;;;4879743;29;20065;-61
2021/07/26 03:06:33;;;;;;;3.78;2.20;;;23.50;59.50;;;;;;4880026;29;20051;-61
2021/07/26 03:08:58;;;;;;;6.15;3.30;;;23.50;59.50;;;;;;4880037;29;20033;-61
2021/07/26 03:11:24;;;;;;;5.75;2.50;;;23.50;59.40;;;;;;4879703;29;20410;-61
2021/07/26 03:13:49;;;;;;;5.13;2.47;;;23.50;59.50;;;;;;4879742;29;20037;-61
2021/07/26 03:16:15;;;;;;;4.05;2.13;;;23.50;59.50;;;;;;4879666;29;20464;-61
2021/07/26 03:18:41;;;;;;;4.28;2.30;;;23.50;59.50;;;;;;4879724;29;20032;-61
2021/07/26 03:21:07;;;;;;;4.85;2.53;;;23.50;59.50;;;;;;4879685;29;20037;-61
2021/07/26 03:23:32;;;;;;;4.15;2.03;;;23.50;59.50;;;;;;4879925;29;20025;-61
2021/07/26 03:25:58;;;;;;;4.85;1.92;;;23.50;59.50;;;;;;4879970;29;20036;-61
2021/07/26 03:28:24;;;;;;;4.85;2.58;;;23.50;59.50;;;;;;4879827;29;20029;-61
2021/07/26 03:30:50;;;;;;;4.10;2.20;;;23.50;59.50;;;;;;4879762;29;20029;-61
2021/07/26 03:33:15;;;;;;;5.20;2.17;;;23.40;59.60;;;;;;4879418;29;20030;-61
2021/07/26 03:35:41;;;;;;;4.75;2.60;;;23.40;59.50;;;;;;4879447;29;20103;-61
2021/07/26 03:38:06;;;;;;;4.32;2.00;;;23.50;59.60;;;;;;4879409;29;20531;-61
2021/07/26 03:40:33;;;;;;;5.00;2.47;;;23.40;59.60;;;;;;4879511;29;20037;-61
2021/07/26 03:42:59;;;;;;;4.15;2.10;;;23.40;59.60;;;;;;4879330;29;20029;-61
2021/07/26 03:45:25;;;;;;;4.38;2.03;;;23.40;59.60;;;;;;4879194;29;20481;-61
2021/07/26 03:47:51;;;;;;;6.10;2.55;;;23.40;59.60;;;;;;4879229;29;20028;-61
2021/07/26 03:50:17;;;;;;;4.55;2.17;;;23.40;59.60;;;;;;4879440;29;20525;-61
2021/07/26 03:52:51;;;;;;;4.32;2.45;;;23.40;59.60;;;;;;4879600;29;20029;-61
2021/07/26 03:55:22;;;;;;;5.20;2.28;;;23.40;59.70;;;;;;4879280;29;20048;-61
2021/07/26 03:57:49;;;;;;;4.97;2.33;;;23.40;59.60;;;;;;4879350;29;20041;-61
2021/07/26 04:00:17;;;;;;;4.40;2.20;;;23.40;59.70;;;;;;4879196;29;20036;-61
2021/07/26 04:02:46;;;;;;;5.03;2.53;;;23.40;59.70;;;;;;4878980;29;20105;-61
2021/07/26 04:05:20;;;;;;;3.85;1.95;;;23.40;59.70;;;;;;4879257;29;20029;-61
2021/07/26 04:07:47;;;;;;;4.57;2.67;;;23.40;59.70;;;;;;4879099;29;20055;-61
2021/07/26 04:10:13;;;;;;;4.43;2.20;;;23.40;59.70;;;;;;4879324;29;20284;-61
2021/07/26 04:12:42;;;;;;;4.43;2.35;;;23.40;59.70;;;;;;4881645;29;20033;-61
2021/07/26 04:15:10;;;;;;;4.22;2.10;;;23.30;59.70;;;;;;4882770;29;20085;-61
2021/07/26 04:17:36;;;;;;;4.30;2.42;;;23.40;59.80;;;;;;4882885;29;20544;-61
2021/07/26 04:20:03;;;;;;;3.33;1.90;;;23.30;59.70;;;;;;4882856;29;20112;-61
2021/07/26 04:22:29;;;;;;;5.38;2.13;;;23.30;59.70;;;;;;4882720;29;20084;-61
2021/07/26 04:24:55;;;;;;;3.67;2.15;;;23.30;59.80;;;;;;4882643;29;20029;-61
2021/07/26 04:27:20;;;;;;;3.75;2.10;;;23.30;59.70;;;;;;4882623;29;20029;-61
2021/07/26 04:29:46;;;;;;;3.50;1.92;;;23.40;59.80;;;;;;4882698;29;20064;-61
2021/07/26 04:32:12;;;;;;;4.72;2.13;;;23.30;59.80;;;;;;4882710;29;20394;-61
2021/07/26 04:34:37;;;;;;;4.63;2.15;;;23.30;59.80;;;;;;4882660;29;20049;-61
2021/07/26 04:37:03;;;;;;;7.93;2.92;;;23.30;59.70;;;;;;4882374;29;20025;-61
2021/07/26 04:39:28;;;;;;;4.88;2.47;;;23.30;59.80;;;;;;4882462;29;20488;-61
2021/07/26 04:41:54;;;;;;;3.70;1.90;;;23.30;59.70;;;;;;4882707;29;20061;-61
2021/07/26 04:44:19;;;;;;;4.38;2.05;;;23.30;59.80;;;;;;4885562;29;20033;-61
2021/07/26 04:46:45;;;;;;;4.43;2.13;;;23.30;59.70;;;;;;4882226;29;20033;-61
2021/07/26 04:49:11;;;;;;;5.10;2.50;;;23.30;59.80;;;;;;4882277;29;20029;-61
2021/07/26 04:51:36;;;;;;;4.88;2.22;;;23.30;59.80;;;;;;4882341;29;20428;-61
2021/07/26 04:54:02;;;;;;;3.92;2.00;;;23.30;59.80;;;;;;4882087;29;20025;-61
2021/07/26 04:56:27;;;;;;;4.10;1.88;;;23.30;59.80;;;;;;4882004;29;20066;-61
2021/07/26 04:58:53;;;;;;;3.83;2.10;;;23.30;59.70;;;;;;4882023;29;20390;-61
2021/07/26 05:01:18;;;;;;;4.78;2.33;;;23.30;59.80;;;;;;4882045;29;20131;-61
2021/07/26 05:03:43;;;;;;;3.42;1.80;;;23.30;59.70;;;;;;4881828;29;20049;-61
2021/07/26 05:06:09;;;;;;;3.50;2.13;;;23.30;59.80;;;;;;4882005;29;20029;-61
2021/07/26 05:08:34;;;;;;;3.53;1.90;;;23.30;59.80;;;;;;4881667;29;20029;-61
2021/07/26 05:11:00;;;;;;;3.63;1.98;;;23.30;59.70;;;;;;4881834;29;20512;-60
2021/07/26 05:13:26;;;;;;;4.97;2.60;;;23.30;59.80;;;;;;4881894;29;20037;-61
2021/07/26 05:15:51;;;;;;;4.72;2.17;;;23.30;59.70;;;;;;4881941;29;20421;-61
2021/07/26 05:18:17;;;;;;;4.45;2.30;;;23.30;59.80;;;;;;4881653;29;20037;-61
2021/07/26 05:20:42;;;;;;;4.53;2.28;;;23.30;59.70;;;;;;4881704;29;20051;-61
2021/07/26 05:23:09;;;;;;;3.63;2.03;;;23.30;59.80;;;;;;4880848;29;20393;-61
2021/07/26 05:25:36;;;;;;;3.53;2.00;;;23.30;59.80;;;;;;4880331;29;20116;-61
2021/07/26 05:28:01;;;;;;;3.92;2.13;;;23.30;59.70;;;;;;4881480;29;20030;-61
2021/07/26 05:30:27;;;;;;;3.55;1.88;;;23.30;59.70;;;;;;4881560;29;20037;-61
2021/07/26 05:32:53;;;;;;;6.15;2.40;;;23.30;59.70;;;;;;4881369;29;20441;-61
2021/07/26 05:35:19;;;;;;;3.83;2.05;;;23.30;59.70;;;;;;4881502;29;20044;-61
2021/07/26 05:37:45;;;;;;;4.78;2.25;;;23.30;59.70;;;;;;4881324;29;20040;-61
2021/07/26 05:40:11;;;;;;;4.65;2.30;;;23.30;59.70;;;;;;4881293;29;20478;-61
2021/07/26 05:42:37;;;;;;;4.53;2.20;;;23.30;59.70;;;;;;4881129;29;20043;-61
2021/07/26 05:45:04;;;;;;;3.03;1.90;;;23.30;59.60;;;;;;4881316;29;20525;-61
2021/07/26 05:47:30;;;;;;;5.40;1.90;;;23.30;59.60;;;;;;4881353;29;20429;-61
2021/07/26 05:49:56;;;;;;;4.82;2.40;;;23.30;59.60;;;;;;4881309;29;20048;-61
2021/07/26 05:52:21;;;;;;;4.78;2.00;;;23.30;59.60;;;;;;4881020;29;20501;-61
2021/07/26 05:54:47;;;;;;;4.78;2.20;;;23.30;59.60;;;;;;4880906;29;20382;-61
2021/07/26 05:57:15;;;;;;;4.10;1.95;;;23.30;59.60;;;;;;4880911;29;20040;-61
2021/07/26 05:59:41;;;;;;;4.00;2.08;;;23.30;59.50;;;;;;4881097;29;20029;-61
2021/07/26 06:02:06;;;;;;;3.55;1.75;;;23.30;59.50;;;;;;4880719;29;20496;-62
2021/07/26 06:04:32;;;;;;;4.53;2.45;;;23.30;59.50;;;;;;4880689;29;20045;-61
2021/07/26 06:06:58;;;;;;;4.53;2.38;;;23.30;59.50;;;;;;4881178;29;20108;-61
2021/07/26 06:09:24;;;;;;;4.53;2.25;;;23.30;59.50;;;;;;4880686;29;20405;-61
2021/07/26 06:11:51;;;;;;;4.82;2.28;;;23.30;59.50;;;;;;4880926;29;20032;-61
2021/07/26 06:14:18;;;;;;;4.57;2.33;;;23.30;59.50;;;;;;4880560;29;20037;-61
2021/07/26 06:16:45;;;;;;;5.28;2.20;;;23.30;59.50;;;;;;4880523;29;20449;-62
2021/07/26 06:19:12;;;;;;;4.63;2.00;;;23.30;59.50;;;;;;4880525;29;20029;-61
2021/07/26 06:21:45;;;;;;;3.33;1.70;;;23.40;59.40;;;;;;4880374;29;20051;-61
2021/07/26 06:24:11;;;;;;;4.18;2.17;;;23.40;59.20;;;;;;4880390;29;20040;-61
2021/07/26 06:26:37;;;;;;;5.25;1.95;;;23.50;59.10;;;;;;4880407;29;20454;-62
2021/07/26 06:29:03;;;;;;;4.22;2.13;;;23.40;59.20;;;;;;4880277;29;20036;-61
2021/07/26 06:31:32;;;;;;;4.13;2.35;;;23.40;59.20;;;;;;4880616;29;20390;-61
2021/07/26 06:33:57;;;;;;;3.47;2.05;;;23.40;59.20;;;;;;4880218;29;20573;-61
2021/07/26 06:36:23;;;;;;;3.88;2.20;;;23.40;59.30;;;;;;4880353;29;20116;-61
2021/07/26 06:38:49;;;;;;;3.50;1.92;;;23.40;59.30;;;;;;4880463;29;20056;-61
2021/07/26 06:41:14;;;;;;;3.58;2.03;;;23.40;59.30;;;;;;4880060;29;20497;-61
2021/07/26 06:43:40;;;;;;;3.75;2.00;;;23.40;59.30;;;;;;4879918;29;20085;-61
2021/07/26 06:46:08;;;;;;;3.97;2.05;;;23.40;59.30;;;;;;4880003;29;20548;-61
2021/07/26 06:48:34;;;;;;;3.95;1.98;;;23.40;59.30;;;;;;4880013;29;20033;-61
2021/07/26 06:51:03;;;;;;;4.30;2.17;;;23.40;59.30;;;;;;4880183;29;20029;-61
2021/07/26 06:53:29;;;;;;;4.15;2.25;;;23.50;59.30;;;;;;4880054;29;20033;-61
2021/07/26 06:55:54;;;;;;;4.05;2.15;;;23.50;59.30;;;;;;4878518;29;20052;-61
2021/07/26 06:58:20;;;;;;;3.58;1.90;;;23.40;59.30;;;;;;4880064;29;20021;-61
2021/07/26 07:00:45;;;;;;;4.93;1.90;;;23.40;59.30;;;;;;4879824;29;20029;-61
2021/07/26 07:03:11;;;;;;;4.32;2.35;;;23.50;59.30;;;;;;4878697;29;20044;-61
2021/07/26 07:05:36;;;;;;;4.72;2.08;;;23.50;59.30;;;;;;4879402;29;20069;-59
2021/07/26 07:08:03;;;;;;;3.70;2.00;;;23.50;59.40;;;;;;4879343;29;20032;-59
2021/07/26 07:10:29;;;;;;;4.40;2.30;;;23.40;59.50;;;;;;4879809;29;20112;-63
2021/07/26 07:12:55;;;;;;;3.55;1.90;;;23.40;59.50;;;;;;4878577;29;20032;-63
2021/07/26 07:15:22;;;;;;;3.58;1.77;;;23.50;59.40;;;;;;4879585;29;20375;-61
2021/07/26 07:17:48;;;;;;;4.07;1.95;;;23.50;59.30;;;;;;4879142;29;20060;-61
2021/07/26 07:20:15;;;;;;;3.92;2.03;;;23.50;59.40;;;;;;4878803;29;20067;-61
2021/07/26 07:22:40;;;;;;;4.78;2.20;;;23.50;59.30;;;;;;4878779;29;20033;-63
2021/07/26 07:25:07;;;;;;;6.57;2.10;;;23.50;59.40;;;;;;4879421;29;20033;-61
2021/07/26 07:27:32;;;;;;;4.47;2.17;;;23.50;59.40;;;;;;4878739;29;20052;-63
2021/07/26 07:29:59;;;;;;;4.45;2.10;;;23.50;59.30;;;;;;4875751;29;20401;-62
2021/07/26 07:32:24;;;;;;;4.45;2.00;;;23.50;59.30;;;;;;4875445;29;20033;-61
2021/07/26 07:34:50;;;;;;;4.22;2.20;;;23.40;59.40;;;;;;4878224;29;20044;-61
2021/07/26 07:37:15;;;;;;;4.88;1.98;;;23.50;59.30;;;;;;4887240;29;20033;-62
2021/07/26 07:39:42;;;;;;;3.55;1.90;;;23.50;59.10;;;;;;4877903;29;20112;-63
2021/07/26 07:42:08;;;;;;;4.20;2.05;;;23.50;59.10;;;;;;4881803;29;20025;-61
2021/07/26 07:44:34;;;;;;;6.00;2.15;;;23.50;59.20;;;;;;4895572;29;20390;-61
2021/07/26 07:47:00;;;;;;;8.55;2.42;;;23.50;59.30;;;;;;4890511;29;20025;-62
2021/07/26 07:49:27;;;;;;;3.72;1.80;;;23.50;59.20;;;;;;4888632;29;20032;-61
2021/07/26 07:51:53;;;;;;;7.65;2.40;;;23.50;59.10;;;;;;4883920;29;20029;-64
2021/07/26 07:54:18;;;;;;;6.10;2.20;;;23.50;59.20;;;;;;4870680;29;20092;-59
2021/07/26 07:56:46;;;;;;;4.45;1.80;;;23.50;59.20;;;;;;4878820;29;20111;-60
2021/07/26 07:59:11;;;;;;;3.20;1.77;;;23.50;59.30;;;;;;4889161;29;20024;-59
2021/07/26 08:01:37;;;;;;;5.50;2.15;;;23.50;59.10;;;;;;4889874;29;20032;-60
2021/07/26 08:04:03;;;;;;;2.88;1.70;;;23.50;59.10;;;;;;4881825;29;20045;-60
2021/07/26 08:06:29;;;;;;;3.92;1.73;;;23.50;59.10;;;;;;4873341;29;20035;-59
2021/07/26 08:08:55;;;;;;;6.22;2.05;;;23.50;59.20;;;;;;4879918;29;20032;-61
2021/07/26 08:11:21;;;;;;;3.85;1.92;;;23.50;59.10;;;;;;4882919;29;20033;-60
2021/07/26 08:13:46;;;;;;;4.57;1.88;;;23.50;59.20;;;;;;4883730;29;20024;-60
2021/07/26 08:16:12;;;;;;;4.25;2.03;;;23.50;59.10;;;;;;4873000;29;20537;-59
2021/07/26 08:18:37;;;;;;;5.20;1.88;;;23.50;59.10;;;;;;4878727;29;20036;-59
2021/07/26 08:21:03;;;;;;;4.70;2.00;;;23.50;59.30;;;;;;4878135;29;20035;-59
2021/07/26 08:23:28;;;;;;;4.50;1.90;;;23.40;59.70;;;;;;4871612;29;20588;-59
2021/07/26 08:25:54;;;;;;;6.45;2.10;;;23.40;59.80;;;;;;4872015;29;20401;-58
2021/07/26 08:28:19;;;;;;;4.82;1.98;;;23.20;60.00;;;;;;4877777;29;20033;-61
2021/07/26 08:30:45;;;;;;;5.88;2.40;;;23.10;60.20;;;;;;4885525;29;20032;-61
2021/07/26 08:33:11;;;;;;;3.38;1.60;;;23.20;60.20;;;;;;4885416;29;20501;-59
2021/07/26 08:35:37;;;;;;;7.30;2.33;;;23.20;60.20;;;;;;4861840;29;20041;-59
2021/07/26 08:38:04;;;;;;;5.38;2.42;;;23.20;60.40;;;;;;4877244;29;20036;-59
2021/07/26 08:40:31;;;;;;;3.47;1.83;;;23.10;60.60;;;;;;4877556;29;20493;-60
2021/07/26 08:43:02;;;;;;;5.95;2.25;;;23.10;60.40;;;;;;4877937;29;20029;-59
2021/07/26 08:45:28;;;;;;;6.57;2.78;;;23.00;60.80;;;;;;4878413;29;20037;-61
2021/07/26 08:47:58;;;;;;;4.63;1.88;;;23.00;60.90;;;;;;4873312;29;20021;-60
2021/07/26 08:50:24;;;;;;;6.45;2.63;;;23.00;61.00;;;;;;4875462;29;20099;-59
2021/07/26 08:52:50;;;;;;;5.85;2.20;;;23.10;61.00;;;;;;4866687;29;20025;-59
2021/07/26 08:55:23;;;;;;;4.80;2.30;;;23.10;60.80;;;;;;4878796;29;20121;-58
2021/07/26 08:57:49;;;;;;;4.45;2.30;;;23.10;60.80;;;;;;4879332;29;20529;-61
2021/07/26 09:00:17;;;;;;;7.32;2.20;;;23.10;60.90;;;;;;4880532;29;20492;-60
2021/07/26 09:02:42;;;;;;;5.53;2.30;;;23.00;61.20;;;;;;4874844;29;20045;-59
2021/07/26 09:05:10;;;;;;;7.07;2.45;;;23.00;61.40;;;;;;4880615;29;20112;-61
2021/07/26 09:07:38;;;;;;;5.10;2.45;;;23.10;61.30;;;;;;4881480;29;20025;-59
2021/07/26 09:10:14;;;;;;;5.80;2.30;;;23.00;61.50;;;;;;4879848;29;20029;-60
2021/07/26 09:12:41;;;;;;;5.70;2.15;;;23.00;61.40;;;;;;4875824;29;20029;-61
2021/07/26 09:15:16;;;;;;;4.90;2.25;;;23.00;61.50;;;;;;4878654;29;20102;-60
2021/07/26 09:17:46;;;;;;;6.63;2.45;;;23.10;61.40;;;;;;4881402;29;20096;-62
2021/07/26 09:20:12;;;;;;;4.78;1.90;;;23.10;61.30;;;;;;4875121;29;20028;-61
2021/07/26 09:22:41;;;;;;;5.85;2.80;;;23.10;61.00;;;;;;4874094;29;20029;-59
2021/07/26 09:25:10;;;;;;;6.50;2.47;;;23.00;60.70;;;;;;4878109;29;20029;-63
2021/07/26 09:27:36;;;;;;;5.47;2.10;;;23.00;60.50;;;;;;4863703;29;20063;-60
2021/07/26 09:30:15;;;;;;;5.60;2.00;;;23.10;60.10;;;;;;4864355;29;20061;-61
2021/07/26 09:32:42;;;;;;;7.30;2.10;;;23.00;59.90;;;;;;4871291;29;20509;-59
2021/07/26 09:35:08;;;;;;;5.93;1.90;;;23.00;60.10;;;;;;4872983;29;20479;-60
2021/07/26 09:37:36;;;;;;;5.95;2.20;;;23.10;59.90;;;;;;4874841;29;20033;-59
2021/07/26 09:40:25;;;;;;;5.55;1.90;;;23.10;59.60;;;;;;4881034;29;20032;-60
2021/07/26 09:42:51;;;;;;;5.53;1.80;;;23.20;59.40;;;;;;4874303;29;20056;-61
2021/07/26 09:45:24;;;;;;;6.20;2.22;;;23.20;59.00;;;;;;4877455;29;20036;-61
2021/07/26 09:48:10;;;;;;;4.78;2.15;;;23.20;59.00;;;;;;4872453;29;20509;-60
2021/07/26 09:50:47;;;;;;;5.25;2.00;;;23.20;59.00;;;;;;4879453;29;20085;-60
2021/07/26 09:53:15;;;;;;;3.92;2.03;;;23.30;58.90;;;;;;4876110;29;20021;-62
2021/07/26 09:55:43;;;;;;;4.45;1.88;;;23.20;58.80;;;;;;4876155;29;20500;-60
2021/07/26 09:58:11;;;;;;;4.50;2.22;;;23.20;58.70;;;;;;4872468;29;20044;-60
2021/07/26 10:00:38;;;;;;;11.13;2.58;;;23.20;58.50;;;;;;4879341;29;20036;-58
2021/07/26 10:03:06;;;;;;;10.48;2.53;;;23.30;58.30;;;;;;4875375;29;23472;-58
2021/07/26 10:05:33;;;;;;;5.70;2.25;;;23.30;58.30;;;;;;4881779;29;20070;-58
2021/07/26 10:08:01;;;;;;;7.22;2.97;;;23.30;58.70;;;;;;4867702;29;20036;-59
2021/07/26 10:10:27;;;;;;;5.88;2.60;;;23.40;58.60;;;;;;4880052;29;20108;-59
2021/07/26 10:12:53;;;;;;;6.43;2.13;;;23.40;58.30;;;;;;4882032;29;20173;-59
2021/07/26 10:15:21;;;;;;;7.57;2.83;;;23.50;58.00;;;;;;4885428;29;20041;-60
2021/07/26 10:17:47;;;;;;;6.22;3.13;;;23.50;57.90;;;;;;4872256;29;20057;-60
2021/07/26 10:20:19;;;;;;;7.18;2.80;;;23.50;58.00;;;;;;4879946;29;20056;-60
2021/07/26 10:22:51;;;;;;;6.93;2.90;;;23.50;58.00;;;;;;4879843;29;20067;-60
2021/07/26 10:25:23;;;;;;;6.70;2.53;;;23.50;58.10;;;;;;4881773;29;20037;-60
2021/07/26 10:27:55;;;;;;;5.10;2.88;;;23.50;58.10;;;;;;4881762;29;20413;-61
2021/07/26 10:30:50;;;;;;;4.90;2.30;;;23.60;58.10;;;;;;4881146;29;20056;-61
2021/07/26 10:33:16;;;;;;;9.30;2.90;;;23.70;57.70;;;;;;4876414;29;20049;-61
2021/07/26 10:35:48;;;;;;;5.47;2.55;;;23.70;57.60;;;;;;4883429;29;20041;-60
2021/07/26 10:38:14;;;;;;;4.40;2.42;;;23.70;57.70;;;;;;4880270;29;20497;-59
2021/07/26 10:40:41;;;;;;;6.30;2.80;;;23.70;57.70;;;;;;4875822;29;20037;-59
2021/07/26 10:43:13;;;;;;;4.47;2.40;;;23.70;57.40;;;;;;4878415;29;20103;-60
2021/07/26 10:45:53;;;;;;;5.20;2.75;;;23.70;57.30;;;;;;4880070;29;20040;-60
2021/07/26 10:48:22;;;;;;;6.32;2.70;;;23.70;57.60;;;;;;4878196;29;20485;-60
2021/07/26 10:50:49;;;;;;;6.13;2.22;;;23.80;57.30;;;;;;4879820;29;20043;-61
2021/07/26 10:53:50;;;;;;;5.80;2.88;;;23.90;57.10;;;;;;4879098;29;20032;-61
2021/07/26 10:56:16;;;;;;;4.90;2.60;;;23.90;57.00;;;;;;4879815;29;20037;-61
2021/07/26 10:58:58;;;;;;;5.97;2.67;;;24.00;56.70;;;;;;4879425;29;20029;-60
2021/07/26 11:01:23;;;;;;;4.22;2.50;;;24.00;56.70;;;;;;4879640;29;20036;-60
2021/07/26 11:03:53;;;;;;;7.28;2.70;;;24.00;56.80;;;;;;4872464;29;20049;-59
2021/07/26 11:06:33;;;;;;;5.25;2.70;;;24.20;56.50;;;;;;4864934;29;20426;-61
2021/07/26 11:09:18;;;;;;;5.57;2.80;;;24.10;56.50;;;;;;4879176;29;20477;-59
2021/07/26 11:11:44;;;;;;;;;;;24.20;56.60;;;;;;4879627;29;20478;-59
2021/07/26 11:14:10;;;;;;;5.32;2.53;;;24.20;56.60;;;;;;4871138;29;19971;-58
2021/07/26 11:17:00;;;;;;;4.15;2.35;;;24.20;56.50;;;;;;4879159;29;20029;-59
2021/07/26 11:19:40;;;;;;;5.32;2.53;;;24.20;56.20;;;;;;4879527;29;20029;-59
2021/07/26 11:22:26;;;;;;;5.10;2.45;;;24.20;56.20;;;;;;4873257;29;20056;-61
2021/07/26 11:24:56;;;;;;;5.53;2.33;;;24.10;56.00;;;;;;4877130;29;20041;-60
2021/07/26 11:27:21;;;;;;;4.55;2.13;;;24.10;55.80;;;;;;4877613;29;20032;-59
2021/07/26 11:29:54;;;;;;;6.00;2.60;;;24.10;55.80;;;;;;4877671;29;20385;-60
2021/07/26 11:32:25;;;;;;;4.38;2.00;;;24.20;55.90;;;;;;4877694;29;20029;-60
2021/07/26 11:35:01;;;;;;;3.53;1.90;;;24.30;55.90;;;;;;4879678;29;20041;-60
2021/07/26 11:37:30;;;;;;;6.70;2.00;;;24.40;55.90;;;;;;4886635;29;20499;-61
2021/07/26 11:39:58;;;;;;;5.05;2.47;;;24.30;56.10;;;;;;4882966;29;20033;-59
2021/07/26 11:42:27;;;;;;;4.85;2.10;;;24.40;56.00;;;;;;4879145;29;20036;-59
2021/07/26 11:44:53;;;;;;;3.83;2.03;;;24.40;55.80;;;;;;4878977;29;20120;-59
2021/07/26 11:47:44;;;;;;;6.72;2.30;;;24.40;56.10;;;;;;4879352;29;20064;-59
2021/07/26 11:50:12;;;;;;;3.42;1.65;;;24.30;55.70;;;;;;4875732;29;20036;-61
2021/07/26 11:52:50;;;;;;;5.35;2.10;;;24.30;55.50;;;;;;4878572;29;20029;-59
2021/07/26 11:55:15;;;;;;;5.53;2.03;;;24.30;55.20;;;;;;4878182;29;20077;-59
2021/07/26 11:57:57;;;;;;;5.63;2.22;;;24.40;55.10;;;;;;4878152;29;20116;-59
2021/07/26 12:00:29;;;;;;;6.80;2.28;;;24.40;55.10;;;;;;4878723;29;20036;-60
2021/07/26 12:02:56;;;;;;;4.55;1.80;;;24.30;55.10;;;;;;4876196;29;20220;-60
2021/07/26 12:05:28;;;;;;;4.72;2.20;;;24.40;55.10;;;;;;4877652;29;20113;-60
2021/07/26 12:07:53;;;;;;;4.10;2.08;;;24.50;54.50;;;;;;4878468;29;20036;-60
2021/07/26 12:10:39;;;;;;;4.85;2.10;;;24.40;54.80;;;;;;4878690;29;20026;-59
2021/07/26 12:13:10;;;;;;;4.65;1.90;;;24.40;54.70;;;;;;4875009;29;20045;-58
2021/07/26 12:15:37;;;;;;;4.47;2.08;;;24.60;54.10;;;;;;4878548;29;20043;-58
2021/07/26 12:18:10;;;;;;;4.25;2.00;;;24.70;53.80;;;;;;4877978;29;20450;-58
2021/07/26 12:20:57;;;;;;;4.57;2.42;;;24.90;53.20;;;;;;4878752;29;20025;-58
2021/07/26 12:23:25;;;;;;;6.28;2.17;;;24.90;53.30;;;;;;4878245;29;20037;-58
2021/07/26 12:25:52;;;;;;;3.97;1.98;;;25.00;53.40;;;;;;4878439;29;20085;-59
2021/07/26 12:28:22;;;;;;;5.68;2.13;;;25.10;53.10;;;;;;4875555;29;20033;-59
2021/07/26 12:30:51;;;;;;;4.72;2.10;;;25.00;53.40;;;;;;4874420;29;20120;-60
2021/07/26 12:33:29;;;;;;;4.78;2.33;;;25.00;53.20;;;;;;4877392;29;20036;-58
2021/07/26 12:36:10;;;;;;;5.40;2.38;;;25.10;52.60;;;;;;4879189;29;20045;-58
2021/07/26 12:38:36;;;;;;;6.68;2.42;;;25.30;52.10;;;;;;4873992;29;20029;-58
2021/07/26 12:41:04;;;;;;;5.45;2.45;;;25.40;51.80;;;;;;4877240;29;20597;-59
2021/07/26 12:43:30;;;;;;;4.15;2.00;;;25.50;51.40;;;;;;4865548;29;20069;-59
2021/07/26 12:46:01;;;;;;;5.95;2.60;;;25.40;51.80;;;;;;4873947;29;20029;-59
2021/07/26 12:48:30;;;;;;;4.80;2.15;;;25.40;52.10;;;;;;4863198;29;20482;-59
2021/07/26 12:50:57;;;;;;;4.45;2.15;;;25.40;52.00;;;;;;4878598;29;20037;-59